sensor_id;sensor_type;location;lat;lon;timestamp;temperature;humidity
22984;DHT22;11658;48.908;9.140;2023-04-09T05:01:28;6.00;99.90
22984;DHT22;11658;48.908;9.140;2023-04-09T05:03:54;6.00;99.90
22984;DHT22;11658;48.908;9.140;2023-04-09T05:06:20;6.10;99.90
22984;DHT22;11658;48.908;9.140;2023-04-09T05:08:45;6.10;99.90
22984;DHT22;11658;48.908;9.140;2023-04-09T05:11:11;6.10;99.90
22984;DHT22;11658;48.908;9.140;2023-04-09T05:13:37;6.10;99.90
22984;DHT22;11658;48.908;9.140;2023-04-09T05:16:03;6.10;99.90
22984;DHT22;11658;48.908;9.140;2023-04-09T05:18:28;6.20;99.90
22984;DHT22;11658;48.908;9.140;2023-04-09T05:20:54;6.20;99.90
22984;DHT22;11658;48.908;9.140;2023-04-09T05:23:19;6.30;99.90
22984;DHT22;11658;48.908;9.140;2023-04-09T05:25:48;6.30;99.90
22984;DHT22;11658;48.908;9.140;2023-04-09T05:28:13;6.40;99.90
22984;DHT22;11658;48.908;9.140;2023-04-09T05:30:44;6.30;99.90
22984;DHT22;11658;48.908;9.140;2023-04-09T05:33:10;6.30;99.90
22984;DHT22;11658;48.908;9.140;2023-04-09T05:35:39;6.30;99.90
22984;DHT22;11658;48.908;9.140;2023-04-09T05:38:07;6.20;99.90
22984;DHT22;11658;48.908;9.140;2023-04-09T05:40:32;6.20;99.90
22984;DHT22;11658;48.908;9.140;2023-04-09T05:43:00;6.20;99.90
22984;DHT22;11658;48.908;9.140;2023-04-09T05:45:25;6.30;99.90
22984;DHT22;11658;48.908;9.140;2023-04-09T05:47:53;6.40;99.90
22984;DHT22;11658;48.908;9.140;2023-04-09T05:50:19;6.40;99.90
22984;DHT22;11658;48.908;9.140;2023-04-09T05:52:44;6.50;99.90
22984;DHT22;11658;48.908;9.140;2023-04-09T05:55:10;6.60;99.90
22984;DHT22;11658;48.908;9.140;2023-04-09T05:57:36;6.70;99.90
22984;DHT22;11658;48.908;9.140;2023-04-09T06:00:02;6.80;99.90
22984;DHT22;11658;48.908;9.140;2023-04-09T06:02:28;6.90;99.90
22984;DHT22;11658;48.908;9.140;2023-04-09T06:04:53;6.90;99.90
22984;DHT22;11658;48.908;9.140;2023-04-09T06:07:19;6.90;99.90
22984;DHT22;11658;48.908;9.140;2023-04-09T06:09:45;7.10;99.90
22984;DHT22;11658;48.908;9.140;2023-04-09T06:12:13;7.20;99.90
22984;DHT22;11658;48.908;9.140;2023-04-09T06:14:40;7.30;99.90
22984;DHT22;11658;48.908;9.140;2023-04-09T06:17:05;7.40;99.90
22984;DHT22;11658;48.908;9.140;2023-04-09T06:19:31;7.60;99.90
22984;DHT22;11658;48.908;9.140;2023-04-09T06:21:57;7.50;99.90
22984;DHT22;11658;48.908;9.140;2023-04-09T06:24:22;7.50;99.90
22984;DHT22;11658;48.908;9.140;2023-04-09T06:26:48;7.60;99.90
22984;DHT22;11658;48.908;9.140;2023-04-09T06:29:14;7.80;99.90
22984;DHT22;11658;48.908;9.140;2023-04-09T06:31:39;7.90;99.90
22984;DHT22;11658;48.908;9.140;2023-04-09T06:34:05;8.20;99.90
22984;DHT22;11658;48.908;9.140;2023-04-09T06:36:32;8.20;99.90
22984;DHT22;11658;48.908;9.140;2023-04-09T06:38:57;8.20;99.90
22984;DHT22;11658;48.908;9.140;2023-04-09T06:41:23;8.00;99.90
22984;DHT22;11658;48.908;9.140;2023-04-09T06:43:49;7.90;99.90
22984;DHT22;11658;48.908;9.140;2023-04-09T06:46:15;8.10;99.90
22984;DHT22;11658;48.908;9.140;2023-04-09T06:48:44;8.10;99.90
22984;DHT22;11658;48.908;9.140;2023-04-09T06:51:10;8.10;99.90
22984;DHT22;11658;48.908;9.140;2023-04-09T06:53:37;7.90;99.90
22984;DHT22;11658;48.908;9.140;2023-04-09T06:56:03;7.80;99.90
22984;DHT22;11658;48.908;9.140;2023-04-09T06:58:28;7.80;99.90
22984;DHT22;11658;48.908;9.140;2023-04-09T07:00:54;7.90;99.90
22984;DHT22;11658;48.908;9.140;2023-04-09T07:03:20;8.00;99.90
22984;DHT22;11658;48.908;9.140;2023-04-09T07:05:45;8.10;99.90
22984;DHT22;11658;48.908;9.140;2023-04-09T07:08:11;8.10;99.90
22984;DHT22;11658;48.908;9.140;2023-04-09T07:10:37;8.20;99.90
22984;DHT22;11658;48.908;9.140;2023-04-09T07:13:02;8.30;99.90
22984;DHT22;11658;48.908;9.140;2023-04-09T07:15:28;8.30;99.90
22984;DHT22;11658;48.908;9.140;2023-04-09T07:17:54;8.40;99.90
22984;DHT22;11658;48.908;9.140;2023-04-09T07:20:20;8.50;99.90
22984;DHT22;11658;48.908;9.140;2023-04-09T07:22:45;8.60;99.90
22984;DHT22;11658;48.908;9.140;2023-04-09T07:25:11;8.80;99.90
22984;DHT22;11658;48.908;9.140;2023-04-09T07:27:36;8.80;99.90
22984;DHT22;11658;48.908;9.140;2023-04-09T07:30:02;8.70;99.90
22984;DHT22;11658;48.908;9.140;2023-04-09T07:32:28;8.80;99.90
22984;DHT22;11658;48.908;9.140;2023-04-09T07:34:54;9.00;99.90
22984;DHT22;11658;48.908;9.140;2023-04-09T07:37:20;9.10;99.90
22984;DHT22;11658;48.908;9.140;2023-04-09T07:39:46;9.30;99.90
22984;DHT22;11658;48.908;9.140;2023-04-09T07:42:12;9.50;99.90
22984;DHT22;11658;48.908;9.140;2023-04-09T07:44:38;9.60;99.90
22984;DHT22;11658;48.908;9.140;2023-04-09T07:47:06;9.70;99.90
22984;DHT22;11658;48.908;9.140;2023-04-09T07:49:32;9.60;99.90
22984;DHT22;11658;48.908;9.140;2023-04-09T07:51:58;9.60;99.90
22984;DHT22;11658;48.908;9.140;2023-04-09T07:54:24;9.60;99.90
22984;DHT22;11658;48.908;9.140;2023-04-09T07:56:50;9.70;99.90
22984;DHT22;11658;48.908;9.140;2023-04-09T07:59:16;9.80;99.90
22984;DHT22;11658;48.908;9.140;2023-04-09T08:01:42;10.20;99.90
22984;DHT22;11658;48.908;9.140;2023-04-09T08:04:09;10.40;99.90
22984;DHT22;11658;48.908;9.140;2023-04-09T08:06:35;10.40;99.90
22984;DHT22;11658;48.908;9.140;2023-04-09T08:09:01;10.40;99.90
22984;DHT22;11658;48.908;9.140;2023-04-09T08:11:26;10.50;99.90
22984;DHT22;11658;48.908;9.140;2023-04-09T08:13:52;10.60;99.90
22984;DHT22;11658;48.908;9.140;2023-04-09T08:16:18;10.50;99.90
22984;DHT22;11658;48.908;9.140;2023-04-09T08:18:46;10.40;99.90
22984;DHT22;11658;48.908;9.140;2023-04-09T08:21:11;10.50;99.90
22984;DHT22;11658;48.908;9.140;2023-04-09T08:23:37;10.60;99.90
22984;DHT22;11658;48.908;9.140;2023-04-09T08:26:03;10.50;99.90
22984;DHT22;11658;48.908;9.140;2023-04-09T08:28:28;10.50;99.90
22984;DHT22;11658;48.908;9.140;2023-04-09T08:30:54;10.40;99.90
22984;DHT22;11658;48.908;9.140;2023-04-09T08:33:20;10.50;99.90
22984;DHT22;11658;48.908;9.140;2023-04-09T08:35:45;10.60;99.90
22984;DHT22;11658;48.908;9.140;2023-04-09T08:38:11;10.80;99.90
22984;DHT22;11658;48.908;9.140;2023-04-09T08:40:37;10.80;99.90
22984;DHT22;11658;48.908;9.140;2023-04-09T08:43:06;11.10;99.90
22984;DHT22;11658;48.908;9.140;2023-04-09T08:45:33;11.20;99.90
22984;DHT22;11658;48.908;9.140;2023-04-09T08:48:01;11.20;99.90
22984;DHT22;11658;48.908;9.140;2023-04-09T08:50:32;11.10;99.90
22984;DHT22;11658;48.908;9.140;2023-04-09T08:53:05;11.20;99.90
22984;DHT22;11658;48.908;9.140;2023-04-09T08:55:31;11.30;99.90
22984;DHT22;11658;48.908;9.140;2023-04-09T08:58:05;11.50;99.90
22984;DHT22;11658;48.908;9.140;2023-04-09T09:00:35;11.70;99.90
22984;DHT22;11658;48.908;9.140;2023-04-09T09:03:06;11.80;99.90
22984;DHT22;11658;48.908;9.140;2023-04-09T09:05:36;11.90;99.90
22984;DHT22;11658;48.908;9.140;2023-04-09T09:08:02;12.00;99.90
22984;DHT22;11658;48.908;9.140;2023-04-09T09:10:42;12.20;99.90
22984;DHT22;11658;48.908;9.140;2023-04-09T09:13:26;12.10;99.90
22984;DHT22;11658;48.908;9.140;2023-04-09T09:15:54;12.20;99.90
22984;DHT22;11658;48.908;9.140;2023-04-09T09:18:40;12.10;99.90
22984;DHT22;11658;48.908;9.140;2023-04-09T09:21:13;11.90;99.90
22984;DHT22;11658;48.908;9.140;2023-04-09T09:23:40;11.90;99.90
22984;DHT22;11658;48.908;9.140;2023-04-09T09:26:24;12.30;99.90
22984;DHT22;11658;48.908;9.140;2023-04-09T09:28:50;12.40;99.90
22984;DHT22;11658;48.908;9.140;2023-04-09T09:31:18;12.40;99.90
22984;DHT22;11658;48.908;9.140;2023-04-09T09:33:44;12.40;99.90
22984;DHT22;11658;48.908;9.140;2023-04-09T09:36:10;11.90;99.90
22984;DHT22;11658;48.908;9.140;2023-04-09T09:38:53;11.50;99.90
22984;DHT22;11658;48.908;9.140;2023-04-09T09:41:19;11.50;99.90
22984;DHT22;11658;48.908;9.140;2023-04-09T09:43:45;11.60;99.90
22984;DHT22;11658;48.908;9.140;2023-04-09T09:46:11;12.00;99.90
22984;DHT22;11658;48.908;9.140;2023-04-09T09:48:37;12.30;99.90
22984;DHT22;11658;48.908;9.140;2023-04-09T09:51:08;12.40;99.90
22984;DHT22;11658;48.908;9.140;2023-04-09T09:53:35;12.50;99.90
22984;DHT22;11658;48.908;9.140;2023-04-09T09:56:04;12.50;99.90
22984;DHT22;11658;48.908;9.140;2023-04-09T10:01:25;12.40;99.90
22984;DHT22;11658;48.908;9.140;2023-04-09T10:03:52;12.60;99.90
22984;DHT22;11658;48.908;9.140;2023-04-09T10:06:20;12.60;99.90
22984;DHT22;11658;48.908;9.140;2023-04-09T10:08:48;12.70;99.90
22984;DHT22;11658;48.908;9.140;2023-04-09T10:11:14;13.20;99.90
22984;DHT22;11658;48.908;9.140;2023-04-09T10:13:45;13.40;99.90
22984;DHT22;11658;48.908;9.140;2023-04-09T10:16:13;13.00;99.90
22984;DHT22;11658;48.908;9.140;2023-04-09T10:18:41;12.90;99.90
22984;DHT22;11658;48.908;9.140;2023-04-09T10:21:46;13.00;99.90
22984;DHT22;11658;48.908;9.140;2023-04-09T10:24:14;13.00;99.90
22984;DHT22;11658;48.908;9.140;2023-04-09T10:26:41;13.00;99.90
22984;DHT22;11658;48.908;9.140;2023-04-09T10:29:11;13.00;99.90
22984;DHT22;11658;48.908;9.140;2023-04-09T10:34:16;12.70;99.90
22984;DHT22;11658;48.908;9.140;2023-04-09T10:36:44;12.70;99.90
22984;DHT22;11658;48.908;9.140;2023-04-09T10:39:12;12.90;99.90
22984;DHT22;11658;48.908;9.140;2023-04-09T10:41:39;13.00;99.90
22984;DHT22;11658;48.908;9.140;2023-04-09T10:44:05;12.80;99.90
22984;DHT22;11658;48.908;9.140;2023-04-09T10:46:34;12.90;99.90
22984;DHT22;11658;48.908;9.140;2023-04-09T10:51:35;13.80;99.90
22984;DHT22;11658;48.908;9.140;2023-04-09T10:54:03;14.10;99.90
22984;DHT22;11658;48.908;9.140;2023-04-09T10:56:30;14.00;99.90
22984;DHT22;11658;48.908;9.140;2023-04-09T10:58:55;14.20;99.90
22984;DHT22;11658;48.908;9.140;2023-04-09T11:01:21;14.30;99.90
22984;DHT22;11658;48.908;9.140;2023-04-09T11:04:07;14.50;99.90
22984;DHT22;11658;48.908;9.140;2023-04-09T11:06:35;14.50;99.90
22984;DHT22;11658;48.908;9.140;2023-04-09T11:09:01;14.60;99.90
22984;DHT22;11658;48.908;9.140;2023-04-09T11:11:28;14.40;99.90
22984;DHT22;11658;48.908;9.140;2023-04-09T11:13:58;14.10;99.90
22984;DHT22;11658;48.908;9.140;2023-04-09T11:16:28;13.90;99.90
22984;DHT22;11658;48.908;9.140;2023-04-09T11:18:53;13.90;99.90
22984;DHT22;11658;48.908;9.140;2023-04-09T11:21:20;13.80;99.90
22984;DHT22;11658;48.908;9.140;2023-04-09T11:23:52;13.80;99.90
22984;DHT22;11658;48.908;9.140;2023-04-09T11:26:34;13.80;99.90
22984;DHT22;11658;48.908;9.140;2023-04-09T11:29:06;14.00;99.90
22984;DHT22;11658;48.908;9.140;2023-04-09T11:31:35;14.10;99.90
22984;DHT22;11658;48.908;9.140;2023-04-09T11:34:01;14.00;99.90
22984;DHT22;11658;48.908;9.140;2023-04-09T11:36:27;13.80;99.90
22984;DHT22;11658;48.908;9.140;2023-04-09T11:38:54;13.80;99.90
22984;DHT22;11658;48.908;9.140;2023-04-09T11:41:34;13.70;99.90
22984;DHT22;11658;48.908;9.140;2023-04-09T11:44:03;13.80;99.90
22984;DHT22;11658;48.908;9.140;2023-04-09T11:46:36;13.80;99.90
22984;DHT22;11658;48.908;9.140;2023-04-09T11:49:02;13.60;99.90
22984;DHT22;11658;48.908;9.140;2023-04-09T11:51:29;13.50;99.90
22984;DHT22;11658;48.908;9.140;2023-04-09T11:54:06;13.50;99.90
22984;DHT22;11658;48.908;9.140;2023-04-09T11:56:33;13.80;99.90
22984;DHT22;11658;48.908;9.140;2023-04-09T11:59:01;14.00;99.90
22984;DHT22;11658;48.908;9.140;2023-04-09T12:01:32;14.00;99.90
22984;DHT22;11658;48.908;9.140;2023-04-09T12:03:59;14.30;99.90
22984;DHT22;11658;48.908;9.140;2023-04-09T12:06:25;14.30;99.90
22984;DHT22;11658;48.908;9.140;2023-04-09T12:08:58;14.40;99.90
22984;DHT22;11658;48.908;9.140;2023-04-09T12:11:30;14.60;99.90
22984;DHT22;11658;48.908;9.140;2023-04-09T12:14:06;14.80;99.90
22984;DHT22;11658;48.908;9.140;2023-04-09T12:16:33;14.60;99.90
22984;DHT22;11658;48.908;9.140;2023-04-09T12:19:06;14.40;99.90
22984;DHT22;11658;48.908;9.140;2023-04-09T12:21:48;14.30;99.90
22984;DHT22;11658;48.908;9.140;2023-04-09T12:24:18;14.60;99.90
22984;DHT22;11658;48.908;9.140;2023-04-09T12:26:45;14.60;99.90
22984;DHT22;11658;48.908;9.140;2023-04-09T12:29:15;14.40;99.90
22984;DHT22;11658;48.908;9.140;2023-04-09T12:31:42;14.20;99.90
22984;DHT22;11658;48.908;9.140;2023-04-09T12:34:08;14.10;99.90
22984;DHT22;11658;48.908;9.140;2023-04-09T12:36:34;13.90;99.90
22984;DHT22;11658;48.908;9.140;2023-04-09T12:38:59;14.10;99.90
22984;DHT22;11658;48.908;9.140;2023-04-09T12:41:25;14.20;99.90
22984;DHT22;11658;48.908;9.140;2023-04-09T12:43:51;14.20;99.90
22984;DHT22;11658;48.908;9.140;2023-04-09T12:46:18;14.20;99.90
22984;DHT22;11658;48.908;9.140;2023-04-09T12:48:44;14.20;99.90
22984;DHT22;11658;48.908;9.140;2023-04-09T12:51:11;13.90;99.90
22984;DHT22;11658;48.908;9.140;2023-04-09T12:53:37;13.90;99.90
22984;DHT22;11658;48.908;9.140;2023-04-09T12:56:02;13.80;99.90
22984;DHT22;11658;48.908;9.140;2023-04-09T12:58:28;13.70;99.90
22984;DHT22;11658;48.908;9.140;2023-04-09T13:00:54;13.80;99.90
22984;DHT22;11658;48.908;9.140;2023-04-09T13:03:21;13.80;99.90
22984;DHT22;11658;48.908;9.140;2023-04-09T13:05:48;13.40;99.90
22984;DHT22;11658;48.908;9.140;2023-04-09T13:08:13;13.50;99.90
22984;DHT22;11658;48.908;9.140;2023-04-09T13:10:39;13.40;99.90
22984;DHT22;11658;48.908;9.140;2023-04-09T13:13:05;13.50;99.90
22984;DHT22;11658;48.908;9.140;2023-04-09T13:15:36;13.60;99.90
22984;DHT22;11658;48.908;9.140;2023-04-09T13:18:02;13.80;99.90
22984;DHT22;11658;48.908;9.140;2023-04-09T13:20:28;13.80;99.90
22984;DHT22;11658;48.908;9.140;2023-04-09T13:22:53;13.90;99.90
22984;DHT22;11658;48.908;9.140;2023-04-09T13:25:19;14.10;99.90
22984;DHT22;11658;48.908;9.140;2023-04-09T13:27:45;14.10;99.90
22984;DHT22;11658;48.908;9.140;2023-04-09T13:30:10;14.30;99.90
22984;DHT22;11658;48.908;9.140;2023-04-09T13:32:36;14.40;99.90
22984;DHT22;11658;48.908;9.140;2023-04-09T13:35:02;14.50;99.90
22984;DHT22;11658;48.908;9.140;2023-04-09T13:37:27;14.70;99.90
22984;DHT22;11658;48.908;9.140;2023-04-09T13:39:54;15.00;99.90
22984;DHT22;11658;48.908;9.140;2023-04-09T13:42:19;15.00;99.90
22984;DHT22;11658;48.908;9.140;2023-04-09T13:44:45;15.10;99.90
22984;DHT22;11658;48.908;9.140;2023-04-09T13:47:12;15.10;99.90
22984;DHT22;11658;48.908;9.140;2023-04-09T13:49:38;14.80;99.90
22984;DHT22;11658;48.908;9.140;2023-04-09T13:52:05;14.60;99.90
22984;DHT22;11658;48.908;9.140;2023-04-09T13:54:31;14.50;99.90
22984;DHT22;11658;48.908;9.140;2023-04-09T13:56:57;14.60;99.90
22984;DHT22;11658;48.908;9.140;2023-04-09T13:59:22;14.60;99.90
22984;DHT22;11658;48.908;9.140;2023-04-09T14:01:48;14.40;99.90
22984;DHT22;11658;48.908;9.140;2023-04-09T14:04:14;14.50;99.90
22984;DHT22;11658;48.908;9.140;2023-04-09T14:06:39;14.60;99.90
22984;DHT22;11658;48.908;9.140;2023-04-09T14:09:07;14.40;99.90
22984;DHT22;11658;48.908;9.140;2023-04-09T14:11:32;14.30;99.90
22984;DHT22;11658;48.908;9.140;2023-04-09T14:13:58;14.20;99.90
22984;DHT22;11658;48.908;9.140;2023-04-09T14:16:23;14.30;99.90
22984;DHT22;11658;48.908;9.140;2023-04-09T14:18:49;14.30;99.90
22984;DHT22;11658;48.908;9.140;2023-04-09T14:21:14;14.70;99.90
22984;DHT22;11658;48.908;9.140;2023-04-09T14:23:41;15.10;99.90
22984;DHT22;11658;48.908;9.140;2023-04-09T14:26:06;15.30;99.90
22984;DHT22;11658;48.908;9.140;2023-04-09T14:28:32;15.50;99.90
22984;DHT22;11658;48.908;9.140;2023-04-09T14:30:58;15.50;99.90
22984;DHT22;11658;48.908;9.140;2023-04-09T14:33:25;15.30;99.90
22984;DHT22;11658;48.908;9.140;2023-04-09T14:35:51;15.60;99.90
22984;DHT22;11658;48.908;9.140;2023-04-09T14:38:16;15.80;99.90
22984;DHT22;11658;48.908;9.140;2023-04-09T14:40:43;15.90;99.50
22984;DHT22;11658;48.908;9.140;2023-04-09T14:43:09;16.00;99.40
22984;DHT22;11658;48.908;9.140;2023-04-09T14:45:34;16.10;99.20
22984;DHT22;11658;48.908;9.140;2023-04-09T14:48:00;16.00;99.10
22984;DHT22;11658;48.908;9.140;2023-04-09T14:50:26;15.60;98.30
22984;DHT22;11658;48.908;9.140;2023-04-09T14:52:51;15.30;99.30
22984;DHT22;11658;48.908;9.140;2023-04-09T14:55:17;15.40;99.50
22984;DHT22;11658;48.908;9.140;2023-04-09T14:57:43;15.20;98.90
22984;DHT22;11658;48.908;9.140;2023-04-09T15:00:10;15.20;99.40
22984;DHT22;11658;48.908;9.140;2023-04-09T15:02:36;15.20;99.20
22984;DHT22;11658;48.908;9.140;2023-04-09T15:05:05;15.00;99.30
22984;DHT22;11658;48.908;9.140;2023-04-09T15:07:31;14.90;99.90
22984;DHT22;11658;48.908;9.140;2023-04-09T15:09:57;14.70;99.80
22984;DHT22;11658;48.908;9.140;2023-04-09T15:12:32;15.00;99.90
22984;DHT22;11658;48.908;9.140;2023-04-09T15:14:58;15.00;99.70
22984;DHT22;11658;48.908;9.140;2023-04-09T15:17:25;14.90;99.90
22984;DHT22;11658;48.908;9.140;2023-04-09T15:19:53;15.00;99.90
22984;DHT22;11658;48.908;9.140;2023-04-09T15:22:20;14.90;99.90
22984;DHT22;11658;48.908;9.140;2023-04-09T15:24:46;14.60;99.90
22984;DHT22;11658;48.908;9.140;2023-04-09T15:27:11;14.40;99.90
22984;DHT22;11658;48.908;9.140;2023-04-09T15:29:37;14.60;99.90
22984;DHT22;11658;48.908;9.140;2023-04-09T15:32:02;15.00;99.90
22984;DHT22;11658;48.908;9.140;2023-04-09T15:34:28;15.30;99.90
22984;DHT22;11658;48.908;9.140;2023-04-09T15:36:53;15.60;99.30
22984;DHT22;11658;48.908;9.140;2023-04-09T15:39:20;15.60;99.50
22984;DHT22;11658;48.908;9.140;2023-04-09T15:41:47;15.70;99.00
22984;DHT22;11658;48.908;9.140;2023-04-09T15:44:12;15.80;99.00
22984;DHT22;11658;48.908;9.140;2023-04-09T15:46:38;15.80;98.90
22984;DHT22;11658;48.908;9.140;2023-04-09T15:49:04;15.70;98.70
22984;DHT22;11658;48.908;9.140;2023-04-09T15:51:29;15.60;99.00
22984;DHT22;11658;48.908;9.140;2023-04-09T15:53:55;15.50;98.90
22984;DHT22;11658;48.908;9.140;2023-04-09T15:56:21;15.60;98.90
22984;DHT22;11658;48.908;9.140;2023-04-09T15:58:47;15.50;97.90
22984;DHT22;11658;48.908;9.140;2023-04-09T16:01:12;15.20;98.00
22984;DHT22;11658;48.908;9.140;2023-04-09T16:03:38;15.00;98.00
22984;DHT22;11658;48.908;9.140;2023-04-09T16:06:07;14.90;98.60
22984;DHT22;11658;48.908;9.140;2023-04-09T16:08:36;14.80;98.80
22984;DHT22;11658;48.908;9.140;2023-04-09T16:11:03;14.80;99.30
22984;DHT22;11658;48.908;9.140;2023-04-09T16:13:29;14.80;99.80
22984;DHT22;11658;48.908;9.140;2023-04-09T16:15:55;14.60;99.60
22984;DHT22;11658;48.908;9.140;2023-04-09T16:18:21;14.60;99.70
22984;DHT22;11658;48.908;9.140;2023-04-09T16:20:52;14.70;99.90
22984;DHT22;11658;48.908;9.140;2023-04-09T16:23:18;14.80;99.40
22984;DHT22;11658;48.908;9.140;2023-04-09T16:25:43;14.80;99.60
22984;DHT22;11658;48.908;9.140;2023-04-09T16:28:09;14.80;99.80
22984;DHT22;11658;48.908;9.140;2023-04-09T16:30:35;14.70;99.70
22984;DHT22;11658;48.908;9.140;2023-04-09T16:33:00;14.60;99.50
22984;DHT22;11658;48.908;9.140;2023-04-09T16:35:26;14.40;99.80
22984;DHT22;11658;48.908;9.140;2023-04-09T16:37:52;14.40;99.90
22984;DHT22;11658;48.908;9.140;2023-04-09T16:40:17;14.40;99.90
22984;DHT22;11658;48.908;9.140;2023-04-09T16:42:48;14.40;99.50
22984;DHT22;11658;48.908;9.140;2023-04-09T16:45:14;15.00;99.10
22984;DHT22;11658;48.908;9.140;2023-04-09T16:47:40;16.00;98.40
22984;DHT22;11658;48.908;9.140;2023-04-09T16:50:06;17.00;97.30
22984;DHT22;11658;48.908;9.140;2023-04-09T16:52:38;17.60;96.70
22984;DHT22;11658;48.908;9.140;2023-04-09T16:55:04;18.00;95.80
22984;DHT22;11658;48.908;9.140;2023-04-09T16:57:29;18.20;95.00
22984;DHT22;11658;48.908;9.140;2023-04-09T16:59:55;18.30;95.10
22984;DHT22;11658;48.908;9.140;2023-04-09T17:02:21;18.80;94.40
22984;DHT22;11658;48.908;9.140;2023-04-09T17:04:48;19.00;93.70
22984;DHT22;11658;48.908;9.140;2023-04-09T17:07:14;19.40;93.90
22984;DHT22;11658;48.908;9.140;2023-04-09T17:09:40;19.20;92.80
22984;DHT22;11658;48.908;9.140;2023-04-09T17:12:06;19.00;92.20
22984;DHT22;11658;48.908;9.140;2023-04-09T17:14:31;19.00;91.70
22984;DHT22;11658;48.908;9.140;2023-04-09T17:16:59;18.20;91.70
22984;DHT22;11658;48.908;9.140;2023-04-09T17:19:24;17.90;92.00
22984;DHT22;11658;48.908;9.140;2023-04-09T17:21:50;18.10;91.80
22984;DHT22;11658;48.908;9.140;2023-04-09T17:24:15;18.40;91.70
22984;DHT22;11658;48.908;9.140;2023-04-09T17:26:41;18.00;91.80
22984;DHT22;11658;48.908;9.140;2023-04-09T17:29:06;18.00;91.60
22984;DHT22;11658;48.908;9.140;2023-04-09T17:31:32;17.70;91.60
22984;DHT22;11658;48.908;9.140;2023-04-09T17:33:57;17.30;92.40
22984;DHT22;11658;48.908;9.140;2023-04-09T17:36:23;16.90;92.40
22984;DHT22;11658;48.908;9.140;2023-04-09T17:38:48;16.20;93.10
22984;DHT22;11658;48.908;9.140;2023-04-09T17:41:16;15.90;93.50
22984;DHT22;11658;48.908;9.140;2023-04-09T17:43:41;15.30;94.10
22984;DHT22;11658;48.908;9.140;2023-04-09T17:46:07;14.70;94.70
22984;DHT22;11658;48.908;9.140;2023-04-09T17:48:36;14.20;95.30
22984;DHT22;11658;48.908;9.140;2023-04-09T17:51:01;13.70;95.80
22984;DHT22;11658;48.908;9.140;2023-04-09T17:53:27;13.40;96.30
22984;DHT22;11658;48.908;9.140;2023-04-09T17:55:52;13.10;96.90
22984;DHT22;11658;48.908;9.140;2023-04-09T17:58:18;13.00;97.50
22984;DHT22;11658;48.908;9.140;2023-04-09T18:00:43;12.80;97.80
22984;DHT22;11658;48.908;9.140;2023-04-09T18:03:10;12.70;98.40
22984;DHT22;11658;48.908;9.140;2023-04-09T18:05:37;12.60;98.30
22984;DHT22;11658;48.908;9.140;2023-04-09T18:08:03;12.50;98.60
22984;DHT22;11658;48.908;9.140;2023-04-09T18:10:28;12.40;99.00
22984;DHT22;11658;48.908;9.140;2023-04-09T18:12:54;12.40;99.10
22984;DHT22;11658;48.908;9.140;2023-04-09T18:15:19;12.20;99.30
22984;DHT22;11658;48.908;9.140;2023-04-09T18:17:46;12.20;99.80
22984;DHT22;11658;48.908;9.140;2023-04-09T18:20:11;12.10;99.90
22984;DHT22;11658;48.908;9.140;2023-04-09T18:22:39;11.90;99.90
22984;DHT22;11658;48.908;9.140;2023-04-09T18:25:05;11.90;99.90
22984;DHT22;11658;48.908;9.140;2023-04-09T18:27:31;11.80;99.90
22984;DHT22;11658;48.908;9.140;2023-04-09T18:29:56;11.80;99.90
22984;DHT22;11658;48.908;9.140;2023-04-09T18:32:22;11.80;99.90
22984;DHT22;11658;48.908;9.140;2023-04-09T18:34:49;11.60;99.90
22984;DHT22;11658;48.908;9.140;2023-04-09T18:37:14;11.50;99.90
22984;DHT22;11658;48.908;9.140;2023-04-09T18:39:40;11.40;99.90
22984;DHT22;11658;48.908;9.140;2023-04-09T18:42:05;11.30;99.90
22984;DHT22;11658;48.908;9.140;2023-04-09T18:44:31;11.30;99.90
22984;DHT22;11658;48.908;9.140;2023-04-09T18:47:00;11.30;99.90
22984;DHT22;11658;48.908;9.140;2023-04-09T18:49:27;11.20;99.90
22984;DHT22;11658;48.908;9.140;2023-04-09T18:51:52;11.10;99.90
22984;DHT22;11658;48.908;9.140;2023-04-09T18:54:18;11.00;99.90
22984;DHT22;11658;48.908;9.140;2023-04-09T18:56:44;11.00;99.90
22984;DHT22;11658;48.908;9.140;2023-04-09T18:59:09;10.90;99.90
22984;DHT22;11658;48.908;9.140;2023-04-09T19:01:35;11.00;99.90
22984;DHT22;11658;48.908;9.140;2023-04-09T19:04:01;10.90;99.90
22984;DHT22;11658;48.908;9.140;2023-04-09T19:06:27;10.90;99.90
22984;DHT22;11658;48.908;9.140;2023-04-09T19:08:52;10.90;99.90
22984;DHT22;11658;48.908;9.140;2023-04-09T19:11:25;10.80;99.90
22984;DHT22;11658;48.908;9.140;2023-04-09T19:13:50;10.80;99.90
22984;DHT22;11658;48.908;9.140;2023-04-09T19:16:16;10.80;99.90
22984;DHT22;11658;48.908;9.140;2023-04-09T19:18:41;10.80;99.90
22984;DHT22;11658;48.908;9.140;2023-04-09T19:21:07;10.70;99.90
22984;DHT22;11658;48.908;9.140;2023-04-09T19:23:33;10.70;99.90
22984;DHT22;11658;48.908;9.140;2023-04-09T19:25:59;10.70;99.90
22984;DHT22;11658;48.908;9.140;2023-04-09T19:28:24;10.60;99.90
22984;DHT22;11658;48.908;9.140;2023-04-09T19:30:51;10.60;99.90
22984;DHT22;11658;48.908;9.140;2023-04-09T19:33:22;10.50;99.90
22984;DHT22;11658;48.908;9.140;2023-04-09T19:35:48;10.50;99.90
22984;DHT22;11658;48.908;9.140;2023-04-09T19:38:14;10.50;99.90
22984;DHT22;11658;48.908;9.140;2023-04-09T19:40:40;10.50;99.90
22984;DHT22;11658;48.908;9.140;2023-04-09T19:43:05;10.40;99.90
22984;DHT22;11658;48.908;9.140;2023-04-09T19:45:31;10.40;99.90
22984;DHT22;11658;48.908;9.140;2023-04-09T19:47:56;10.40;99.90
22984;DHT22;11658;48.908;9.140;2023-04-09T19:50:22;10.30;99.90
22984;DHT22;11658;48.908;9.140;2023-04-09T19:52:47;10.30;99.90
22984;DHT22;11658;48.908;9.140;2023-04-09T19:55:13;10.20;99.90
22984;DHT22;11658;48.908;9.140;2023-04-09T19:57:39;10.20;99.90
22984;DHT22;11658;48.908;9.140;2023-04-09T20:00:05;10.20;99.90
22984;DHT22;11658;48.908;9.140;2023-04-09T20:02:31;10.20;99.90
22984;DHT22;11658;48.908;9.140;2023-04-09T20:04:57;10.10;99.90
22984;DHT22;11658;48.908;9.140;2023-04-09T20:07:22;10.00;99.90
22984;DHT22;11658;48.908;9.140;2023-04-09T20:09:48;9.90;99.90
22984;DHT22;11658;48.908;9.140;2023-04-09T20:12:13;9.90;99.90
22984;DHT22;11658;48.908;9.140;2023-04-09T20:14:39;9.80;99.90
22984;DHT22;11658;48.908;9.140;2023-04-09T20:17:05;9.80;99.90
22984;DHT22;11658;48.908;9.140;2023-04-09T20:19:30;9.80;99.90
22984;DHT22;11658;48.908;9.140;2023-04-09T20:21:56;9.70;99.90
22984;DHT22;11658;48.908;9.140;2023-04-09T20:24:24;9.70;99.90
22984;DHT22;11658;48.908;9.140;2023-04-09T20:26:51;9.60;99.90
22984;DHT22;11658;48.908;9.140;2023-04-09T20:29:16;9.60;99.90
22984;DHT22;11658;48.908;9.140;2023-04-09T20:31:43;9.60;99.90
22984;DHT22;11658;48.908;9.140;2023-04-09T20:34:09;9.60;99.90
22984;DHT22;11658;48.908;9.140;2023-04-09T20:36:34;9.60;99.90
22984;DHT22;11658;48.908;9.140;2023-04-09T20:39:00;9.50;99.90
22984;DHT22;11658;48.908;9.140;2023-04-09T20:41:25;9.50;99.90